sensor_id;sensor_type;location;lat;lon;timestamp;P1;durP1;ratioP1;P2;durP2;ratioP2
11986;SDS011;6053;51.382;6.768;2023-04-02T00:00:13;0.80;;;0.80;;
11986;SDS011;6053;51.382;6.768;2023-04-02T00:02:45;0.70;;;0.70;;
11986;SDS011;6053;51.382;6.768;2023-04-02T00:05:27;0.80;;;0.80;;
11986;SDS011;6053;51.382;6.768;2023-04-02T00:08:21;0.52;;;0.52;;
11986;SDS011;6053;51.382;6.768;2023-04-02T00:10:53;0.60;;;0.60;;
11986;SDS011;6053;51.382;6.768;2023-04-02T00:13:27;0.63;;;0.63;;
11986;SDS011;6053;51.382;6.768;2023-04-02T00:16:00;0.77;;;0.77;;
11986;SDS011;6053;51.382;6.768;2023-04-02T00:18:30;0.70;;;0.70;;
11986;SDS011;6053;51.382;6.768;2023-04-02T00:21:05;0.90;;;0.90;;
11986;SDS011;6053;51.382;6.768;2023-04-02T00:23:40;0.82;;;0.82;;
11986;SDS011;6053;51.382;6.768;2023-04-02T00:26:20;0.82;;;0.82;;
11986;SDS011;6053;51.382;6.768;2023-04-02T00:28:50;0.70;;;0.70;;
11986;SDS011;6053;51.382;6.768;2023-04-02T00:31:19;0.70;;;0.70;;
11986;SDS011;6053;51.382;6.768;2023-04-02T00:33:48;0.50;;;0.50;;
11986;SDS011;6053;51.382;6.768;2023-04-02T00:36:18;0.60;;;0.60;;
11986;SDS011;6053;51.382;6.768;2023-04-02T00:38:51;0.90;;;0.90;;
11986;SDS011;6053;51.382;6.768;2023-04-02T00:41:23;0.73;;;0.73;;
11986;SDS011;6053;51.382;6.768;2023-04-02T00:43:55;0.85;;;0.85;;
11986;SDS011;6053;51.382;6.768;2023-04-02T00:46:28;0.80;;;0.80;;
11986;SDS011;6053;51.382;6.768;2023-04-02T00:49:04;0.85;;;0.85;;
11986;SDS011;6053;51.382;6.768;2023-04-02T00:51:37;0.93;;;0.93;;
11986;SDS011;6053;51.382;6.768;2023-04-02T00:54:12;0.90;;;0.90;;
11986;SDS011;6053;51.382;6.768;2023-04-02T00:56:46;0.70;;;0.70;;
11986;SDS011;6053;51.382;6.768;2023-04-02T00:59:19;1.00;;;1.00;;
11986;SDS011;6053;51.382;6.768;2023-04-02T01:01:53;0.85;;;0.85;;
11986;SDS011;6053;51.382;6.768;2023-04-02T01:04:28;0.77;;;0.60;;
11986;SDS011;6053;51.382;6.768;2023-04-02T01:07:01;1.07;;;1.07;;
11986;SDS011;6053;51.382;6.768;2023-04-02T01:09:37;0.90;;;0.90;;
11986;SDS011;6053;51.382;6.768;2023-04-02T01:12:26;0.77;;;0.77;;
11986;SDS011;6053;51.382;6.768;2023-04-02T01:15:07;0.73;;;0.73;;
11986;SDS011;6053;51.382;6.768;2023-04-02T01:17:46;0.93;;;0.93;;
11986;SDS011;6053;51.382;6.768;2023-04-02T01:20:37;1.20;;;1.20;;
11986;SDS011;6053;51.382;6.768;2023-04-02T01:23:34;0.90;;;0.90;;
11986;SDS011;6053;51.382;6.768;2023-04-02T01:26:15;0.90;;;0.90;;
11986;SDS011;6053;51.382;6.768;2023-04-02T01:28:57;1.10;;;1.10;;
11986;SDS011;6053;51.382;6.768;2023-04-02T01:31:30;1.00;;;1.00;;
11986;SDS011;6053;51.382;6.768;2023-04-02T01:33:59;1.20;;;1.20;;
11986;SDS011;6053;51.382;6.768;2023-04-02T01:36:34;0.90;;;0.90;;
11986;SDS011;6053;51.382;6.768;2023-04-02T01:39:10;1.00;;;1.00;;
11986;SDS011;6053;51.382;6.768;2023-04-02T01:41:53;1.00;;;1.00;;
11986;SDS011;6053;51.382;6.768;2023-04-02T01:44:32;1.00;;;1.00;;
11986;SDS011;6053;51.382;6.768;2023-04-02T01:47:06;1.03;;;1.03;;
11986;SDS011;6053;51.382;6.768;2023-04-02T01:49:38;1.20;;;1.20;;
11986;SDS011;6053;51.382;6.768;2023-04-02T01:52:11;0.93;;;0.93;;
11986;SDS011;6053;51.382;6.768;2023-04-02T01:54:44;0.80;;;0.80;;
11986;SDS011;6053;51.382;6.768;2023-04-02T01:57:13;0.95;;;0.95;;
11986;SDS011;6053;51.382;6.768;2023-04-02T01:59:44;1.00;;;1.00;;
11986;SDS011;6053;51.382;6.768;2023-04-02T02:02:13;1.10;;;1.10;;
11986;SDS011;6053;51.382;6.768;2023-04-02T02:04:43;0.77;;;0.77;;
11986;SDS011;6053;51.382;6.768;2023-04-02T02:07:13;1.00;;;1.00;;
11986;SDS011;6053;51.382;6.768;2023-04-02T02:09:43;1.10;;;1.10;;
11986;SDS011;6053;51.382;6.768;2023-04-02T02:12:12;0.90;;;0.90;;
11986;SDS011;6053;51.382;6.768;2023-04-02T02:14:45;1.13;;;1.10;;
11986;SDS011;6053;51.382;6.768;2023-04-02T02:17:16;0.93;;;0.93;;
11986;SDS011;6053;51.382;6.768;2023-04-02T02:19:50;1.30;;;1.20;;
11986;SDS011;6053;51.382;6.768;2023-04-02T02:22:24;1.10;;;1.10;;
11986;SDS011;6053;51.382;6.768;2023-04-02T02:24:56;1.15;;;1.00;;
11986;SDS011;6053;51.382;6.768;2023-04-02T02:27:35;0.90;;;0.90;;
11986;SDS011;6053;51.382;6.768;2023-04-02T02:30:16;0.93;;;0.93;;
11986;SDS011;6053;51.382;6.768;2023-04-02T02:32:52;0.88;;;0.88;;
11986;SDS011;6053;51.382;6.768;2023-04-02T02:35:27;1.02;;;1.00;;
11986;SDS011;6053;51.382;6.768;2023-04-02T02:38:01;0.98;;;0.98;;
11986;SDS011;6053;51.382;6.768;2023-04-02T02:40:52;1.00;;;1.00;;
11986;SDS011;6053;51.382;6.768;2023-04-02T02:43:24;1.07;;;1.07;;
11986;SDS011;6053;51.382;6.768;2023-04-02T02:45:56;1.30;;;1.20;;
11986;SDS011;6053;51.382;6.768;2023-04-02T02:48:33;1.10;;;1.10;;
11986;SDS011;6053;51.382;6.768;2023-04-02T02:51:06;0.90;;;0.90;;
11986;SDS011;6053;51.382;6.768;2023-04-02T02:53:44;0.90;;;0.90;;
11986;SDS011;6053;51.382;6.768;2023-04-02T02:56:16;1.00;;;1.00;;
11986;SDS011;6053;51.382;6.768;2023-04-02T02:58:48;0.80;;;0.80;;
11986;SDS011;6053;51.382;6.768;2023-04-02T03:01:20;1.08;;;1.08;;
11986;SDS011;6053;51.382;6.768;2023-04-02T03:03:51;0.93;;;0.93;;
11986;SDS011;6053;51.382;6.768;2023-04-02T03:06:21;0.90;;;0.90;;
11986;SDS011;6053;51.382;6.768;2023-04-02T03:08:52;1.13;;;1.13;;
11986;SDS011;6053;51.382;6.768;2023-04-02T03:11:28;0.88;;;0.88;;
11986;SDS011;6053;51.382;6.768;2023-04-02T03:14:05;1.10;;;1.10;;
11986;SDS011;6053;51.382;6.768;2023-04-02T03:16:40;0.90;;;0.90;;
11986;SDS011;6053;51.382;6.768;2023-04-02T03:19:15;0.98;;;0.98;;
11986;SDS011;6053;51.382;6.768;2023-04-02T03:21:54;0.90;;;0.90;;
11986;SDS011;6053;51.382;6.768;2023-04-02T03:24:30;1.00;;;1.00;;
11986;SDS011;6053;51.382;6.768;2023-04-02T03:27:04;1.00;;;1.00;;
11986;SDS011;6053;51.382;6.768;2023-04-02T03:29:39;0.90;;;0.90;;
11986;SDS011;6053;51.382;6.768;2023-04-02T03:32:13;0.90;;;0.90;;
11986;SDS011;6053;51.382;6.768;2023-04-02T03:34:45;1.08;;;1.00;;
11986;SDS011;6053;51.382;6.768;2023-04-02T03:37:19;1.00;;;1.00;;
11986;SDS011;6053;51.382;6.768;2023-04-02T03:39:52;1.10;;;1.10;;
11986;SDS011;6053;51.382;6.768;2023-04-02T03:42:27;0.88;;;0.88;;
11986;SDS011;6053;51.382;6.768;2023-04-02T03:45:04;1.40;;;1.30;;
11986;SDS011;6053;51.382;6.768;2023-04-02T03:47:41;1.23;;;1.23;;
11986;SDS011;6053;51.382;6.768;2023-04-02T03:50:13;1.20;;;1.20;;
11986;SDS011;6053;51.382;6.768;2023-04-02T03:52:47;1.70;;;1.10;;
11986;SDS011;6053;51.382;6.768;2023-04-02T03:55:16;1.20;;;1.10;;
11986;SDS011;6053;51.382;6.768;2023-04-02T03:57:51;1.00;;;1.00;;
11986;SDS011;6053;51.382;6.768;2023-04-02T04:00:27;1.15;;;1.15;;
11986;SDS011;6053;51.382;6.768;2023-04-02T04:03:05;1.20;;;1.20;;
11986;SDS011;6053;51.382;6.768;2023-04-02T04:05:42;1.27;;;1.27;;
11986;SDS011;6053;51.382;6.768;2023-04-02T04:08:15;1.30;;;1.20;;
11986;SDS011;6053;51.382;6.768;2023-04-02T04:10:49;0.90;;;0.90;;
11986;SDS011;6053;51.382;6.768;2023-04-02T04:13:21;1.45;;;1.35;;
11986;SDS011;6053;51.382;6.768;2023-04-02T04:15:58;1.45;;;1.35;;
11986;SDS011;6053;51.382;6.768;2023-04-02T04:18:32;1.42;;;1.42;;
11986;SDS011;6053;51.382;6.768;2023-04-02T04:21:11;1.20;;;1.20;;
11986;SDS011;6053;51.382;6.768;2023-04-02T04:23:48;1.10;;;1.10;;
11986;SDS011;6053;51.382;6.768;2023-04-02T04:26:18;1.10;;;1.10;;
11986;SDS011;6053;51.382;6.768;2023-04-02T04:28:53;1.10;;;1.10;;
11986;SDS011;6053;51.382;6.768;2023-04-02T04:31:31;1.08;;;1.08;;
11986;SDS011;6053;51.382;6.768;2023-04-02T04:34:07;1.50;;;1.40;;
11986;SDS011;6053;51.382;6.768;2023-04-02T04:36:42;1.00;;;1.00;;
11986;SDS011;6053;51.382;6.768;2023-04-02T04:39:20;1.60;;;1.50;;
11986;SDS011;6053;51.382;6.768;2023-04-02T04:41:55;1.50;;;1.40;;
11986;SDS011;6053;51.382;6.768;2023-04-02T04:44:30;1.35;;;1.25;;
11986;SDS011;6053;51.382;6.768;2023-04-02T04:47:09;1.23;;;1.23;;
11986;SDS011;6053;51.382;6.768;2023-04-02T04:49:44;1.60;;;1.50;;
11986;SDS011;6053;51.382;6.768;2023-04-02T04:52:19;1.50;;;1.40;;
11986;SDS011;6053;51.382;6.768;2023-04-02T04:54:51;1.70;;;1.40;;
11986;SDS011;6053;51.382;6.768;2023-04-02T04:57:28;1.40;;;1.30;;
11986;SDS011;6053;51.382;6.768;2023-04-02T05:00:02;1.10;;;1.10;;
11986;SDS011;6053;51.382;6.768;2023-04-02T05:02:40;1.42;;;1.33;;
11986;SDS011;6053;51.382;6.768;2023-04-02T05:05:20;1.80;;;1.57;;
11986;SDS011;6053;51.382;6.768;2023-04-02T05:07:55;1.70;;;1.60;;
11986;SDS011;6053;51.382;6.768;2023-04-02T05:10:27;1.80;;;1.70;;
11986;SDS011;6053;51.382;6.768;2023-04-02T05:13:04;1.75;;;1.50;;
11986;SDS011;6053;51.382;6.768;2023-04-02T05:15:40;1.67;;;1.58;;
11986;SDS011;6053;51.382;6.768;2023-04-02T05:18:17;1.80;;;1.60;;
11986;SDS011;6053;51.382;6.768;2023-04-02T05:20:53;1.83;;;1.73;;
11986;SDS011;6053;51.382;6.768;2023-04-02T05:23:29;1.85;;;1.75;;
11986;SDS011;6053;51.382;6.768;2023-04-02T05:26:02;2.00;;;1.80;;
11986;SDS011;6053;51.382;6.768;2023-04-02T05:28:37;2.28;;;2.17;;
11986;SDS011;6053;51.382;6.768;2023-04-02T05:31:12;2.40;;;2.20;;
11986;SDS011;6053;51.382;6.768;2023-04-02T05:33:46;1.65;;;1.55;;
11986;SDS011;6053;51.382;6.768;2023-04-02T05:36:21;2.40;;;2.20;;
11986;SDS011;6053;51.382;6.768;2023-04-02T05:38:52;2.08;;;1.98;;
11986;SDS011;6053;51.382;6.768;2023-04-02T05:41:23;1.52;;;1.42;;
11986;SDS011;6053;51.382;6.768;2023-04-02T05:43:58;1.60;;;1.60;;
11986;SDS011;6053;51.382;6.768;2023-04-02T05:46:33;2.50;;;2.30;;
11986;SDS011;6053;51.382;6.768;2023-04-02T05:49:08;2.47;;;2.23;;
11986;SDS011;6053;51.382;6.768;2023-04-02T05:51:47;2.53;;;2.03;;
11986;SDS011;6053;51.382;6.768;2023-04-02T05:54:23;2.63;;;2.35;;
11986;SDS011;6053;51.382;6.768;2023-04-02T05:56:56;2.08;;;1.98;;
11986;SDS011;6053;51.382;6.768;2023-04-02T05:59:29;2.03;;;1.92;;
11986;SDS011;6053;51.382;6.768;2023-04-02T06:02:01;1.92;;;1.83;;
11986;SDS011;6053;51.382;6.768;2023-04-02T06:04:41;3.40;;;2.03;;
11986;SDS011;6053;51.382;6.768;2023-04-02T06:07:18;2.45;;;2.25;;
11986;SDS011;6053;51.382;6.768;2023-04-02T06:09:50;2.05;;;1.73;;
11986;SDS011;6053;51.382;6.768;2023-04-02T06:12:29;2.00;;;1.90;;
11986;SDS011;6053;51.382;6.768;2023-04-02T06:15:04;1.90;;;1.80;;
11986;SDS011;6053;51.382;6.768;2023-04-02T06:17:42;2.23;;;1.97;;
11986;SDS011;6053;51.382;6.768;2023-04-02T06:20:14;1.30;;;1.30;;
11986;SDS011;6053;51.382;6.768;2023-04-02T06:22:47;2.20;;;1.85;;
11986;SDS011;6053;51.382;6.768;2023-04-02T06:25:23;2.83;;;1.98;;
11986;SDS011;6053;51.382;6.768;2023-04-02T06:27:55;2.05;;;1.70;;
11986;SDS011;6053;51.382;6.768;2023-04-02T06:30:29;2.03;;;1.93;;
11986;SDS011;6053;51.382;6.768;2023-04-02T06:33:01;1.95;;;1.85;;
11986;SDS011;6053;51.382;6.768;2023-04-02T06:35:31;2.42;;;2.22;;
11986;SDS011;6053;51.382;6.768;2023-04-02T06:38:03;2.20;;;1.90;;
11986;SDS011;6053;51.382;6.768;2023-04-02T06:40:40;2.20;;;2.10;;
11986;SDS011;6053;51.382;6.768;2023-04-02T06:43:12;3.10;;;2.35;;
11986;SDS011;6053;51.382;6.768;2023-04-02T06:45:48;2.35;;;2.15;;
11986;SDS011;6053;51.382;6.768;2023-04-02T06:48:19;2.60;;;2.05;;
11986;SDS011;6053;51.382;6.768;2023-04-02T06:50:50;2.13;;;1.93;;
11986;SDS011;6053;51.382;6.768;2023-04-02T06:53:26;3.33;;;2.17;;
11986;SDS011;6053;51.382;6.768;2023-04-02T06:55:59;2.10;;;2.00;;
11986;SDS011;6053;51.382;6.768;2023-04-02T06:58:32;5.93;;;2.22;;
11986;SDS011;6053;51.382;6.768;2023-04-02T07:01:00;3.17;;;2.10;;
11986;SDS011;6053;51.382;6.768;2023-04-02T07:03:30;3.40;;;2.10;;
11986;SDS011;6053;51.382;6.768;2023-04-02T07:05:59;2.90;;;2.00;;
11986;SDS011;6053;51.382;6.768;2023-04-02T07:08:31;2.83;;;2.42;;
11986;SDS011;6053;51.382;6.768;2023-04-02T07:10:59;1.70;;;1.60;;
11986;SDS011;6053;51.382;6.768;2023-04-02T07:13:28;2.25;;;2.05;;
11986;SDS011;6053;51.382;6.768;2023-04-02T07:15:56;2.15;;;1.90;;
11986;SDS011;6053;51.382;6.768;2023-04-02T07:18:27;2.08;;;1.88;;
11986;SDS011;6053;51.382;6.768;2023-04-02T07:20:57;1.85;;;1.70;;
11986;SDS011;6053;51.382;6.768;2023-04-02T07:23:26;1.80;;;1.70;;
11986;SDS011;6053;51.382;6.768;2023-04-02T07:25:56;2.00;;;1.90;;
11986;SDS011;6053;51.382;6.768;2023-04-02T07:28:24;2.08;;;1.90;;
11986;SDS011;6053;51.382;6.768;2023-04-02T07:30:53;2.13;;;2.03;;
11986;SDS011;6053;51.382;6.768;2023-04-02T07:33:23;3.47;;;2.73;;
11986;SDS011;6053;51.382;6.768;2023-04-02T07:35:54;1.90;;;1.80;;
11986;SDS011;6053;51.382;6.768;2023-04-02T07:38:23;2.42;;;2.22;;
11986;SDS011;6053;51.382;6.768;2023-04-02T07:40:52;1.95;;;1.77;;
11986;SDS011;6053;51.382;6.768;2023-04-02T07:43:22;1.80;;;1.70;;
11986;SDS011;6053;51.382;6.768;2023-04-02T07:45:51;1.98;;;1.80;;
11986;SDS011;6053;51.382;6.768;2023-04-02T07:48:19;1.85;;;1.73;;
11986;SDS011;6053;51.382;6.768;2023-04-02T07:50:48;2.22;;;2.03;;
11986;SDS011;6053;51.382;6.768;2023-04-02T07:53:24;2.90;;;2.10;;
11986;SDS011;6053;51.382;6.768;2023-04-02T07:55:56;2.20;;;1.98;;
11986;SDS011;6053;51.382;6.768;2023-04-02T07:58:28;2.15;;;1.77;;
11986;SDS011;6053;51.382;6.768;2023-04-02T08:00:57;2.10;;;1.88;;
11986;SDS011;6053;51.382;6.768;2023-04-02T08:03:29;2.40;;;2.10;;
11986;SDS011;6053;51.382;6.768;2023-04-02T08:05:58;2.17;;;1.88;;
11986;SDS011;6053;51.382;6.768;2023-04-02T08:08:27;2.22;;;2.03;;
11986;SDS011;6053;51.382;6.768;2023-04-02T08:10:55;2.20;;;2.00;;
11986;SDS011;6053;51.382;6.768;2023-04-02T08:13:24;2.10;;;2.00;;
11986;SDS011;6053;51.382;6.768;2023-04-02T08:15:56;2.65;;;1.90;;
11986;SDS011;6053;51.382;6.768;2023-04-02T08:18:25;3.40;;;2.10;;
11986;SDS011;6053;51.382;6.768;2023-04-02T08:20:53;3.30;;;2.17;;
11986;SDS011;6053;51.382;6.768;2023-04-02T08:23:22;2.45;;;2.20;;
11986;SDS011;6053;51.382;6.768;2023-04-02T08:25:52;3.00;;;2.00;;
11986;SDS011;6053;51.382;6.768;2023-04-02T08:28:21;1.90;;;1.77;;
11986;SDS011;6053;51.382;6.768;2023-04-02T08:30:50;1.70;;;1.60;;
11986;SDS011;6053;51.382;6.768;2023-04-02T08:33:20;2.20;;;2.00;;
11986;SDS011;6053;51.382;6.768;2023-04-02T08:35:49;2.30;;;2.10;;
11986;SDS011;6053;51.382;6.768;2023-04-02T08:38:19;2.83;;;2.00;;
11986;SDS011;6053;51.382;6.768;2023-04-02T08:40:48;2.43;;;1.90;;
11986;SDS011;6053;51.382;6.768;2023-04-02T08:46:34;3.10;;;1.80;;
11986;SDS011;6053;51.382;6.768;2023-04-02T08:49:12;1.85;;;1.70;;
11986;SDS011;6053;51.382;6.768;2023-04-02T08:51:44;2.75;;;1.92;;
11986;SDS011;6053;51.382;6.768;2023-04-02T08:54:14;1.42;;;1.30;;
11986;SDS011;6053;51.382;6.768;2023-04-02T08:56:48;1.60;;;1.50;;
11986;SDS011;6053;51.382;6.768;2023-04-02T08:59:23;2.10;;;1.83;;
11986;SDS011;6053;51.382;6.768;2023-04-02T09:01:59;2.00;;;1.80;;
11986;SDS011;6053;51.382;6.768;2023-04-02T09:04:47;2.00;;;1.83;;
11986;SDS011;6053;51.382;6.768;2023-04-02T09:07:16;1.70;;;1.60;;
11986;SDS011;6053;51.382;6.768;2023-04-02T09:09:45;2.53;;;1.88;;
11986;SDS011;6053;51.382;6.768;2023-04-02T09:12:16;1.70;;;1.70;;
11986;SDS011;6053;51.382;6.768;2023-04-02T09:14:49;2.75;;;1.90;;
11986;SDS011;6053;51.382;6.768;2023-04-02T09:17:26;1.70;;;1.60;;
11986;SDS011;6053;51.382;6.768;2023-04-02T09:20:13;2.70;;;1.90;;
11986;SDS011;6053;51.382;6.768;2023-04-02T09:22:43;1.85;;;1.65;;
11986;SDS011;6053;51.382;6.768;2023-04-02T09:25:14;3.80;;;1.73;;
11986;SDS011;6053;51.382;6.768;2023-04-02T09:27:46;2.30;;;1.80;;
11986;SDS011;6053;51.382;6.768;2023-04-02T09:30:20;1.73;;;1.63;;
11986;SDS011;6053;51.382;6.768;2023-04-02T09:32:56;1.73;;;1.40;;
11986;SDS011;6053;51.382;6.768;2023-04-02T09:35:29;2.05;;;1.75;;
11986;SDS011;6053;51.382;6.768;2023-04-02T09:38:10;1.80;;;1.70;;
11986;SDS011;6053;51.382;6.768;2023-04-02T09:40:47;2.10;;;1.90;;
11986;SDS011;6053;51.382;6.768;2023-04-02T09:43:17;1.97;;;1.50;;
11986;SDS011;6053;51.382;6.768;2023-04-02T09:45:54;1.70;;;1.60;;
11986;SDS011;6053;51.382;6.768;2023-04-02T09:48:26;1.85;;;1.55;;
11986;SDS011;6053;51.382;6.768;2023-04-02T09:51:04;2.35;;;1.77;;
11986;SDS011;6053;51.382;6.768;2023-04-02T09:53:38;1.90;;;1.70;;
11986;SDS011;6053;51.382;6.768;2023-04-02T09:56:14;1.63;;;1.50;;
11986;SDS011;6053;51.382;6.768;2023-04-02T09:58:44;2.17;;;1.60;;
11986;SDS011;6053;51.382;6.768;2023-04-02T10:01:29;2.53;;;1.63;;
11986;SDS011;6053;51.382;6.768;2023-04-02T10:04:00;1.63;;;1.52;;
11986;SDS011;6053;51.382;6.768;2023-04-02T10:06:32;1.30;;;1.30;;
11986;SDS011;6053;51.382;6.768;2023-04-02T10:11:46;1.77;;;1.67;;
11986;SDS011;6053;51.382;6.768;2023-04-02T10:14:18;1.52;;;1.42;;
11986;SDS011;6053;51.382;6.768;2023-04-02T10:16:51;1.75;;;1.65;;
11986;SDS011;6053;51.382;6.768;2023-04-02T10:19:25;2.58;;;1.88;;
11986;SDS011;6053;51.382;6.768;2023-04-02T10:22:02;2.33;;;1.80;;
11986;SDS011;6053;51.382;6.768;2023-04-02T10:24:32;1.80;;;1.70;;
11986;SDS011;6053;51.382;6.768;2023-04-02T10:27:04;3.50;;;1.40;;
11986;SDS011;6053;51.382;6.768;2023-04-02T10:29:49;1.70;;;1.60;;
11986;SDS011;6053;51.382;6.768;2023-04-02T10:32:36;1.70;;;1.60;;
11986;SDS011;6053;51.382;6.768;2023-04-02T10:35:11;2.47;;;1.40;;
11986;SDS011;6053;51.382;6.768;2023-04-02T10:40:57;2.08;;;1.60;;
11986;SDS011;6053;51.382;6.768;2023-04-02T10:43:32;1.90;;;1.70;;
11986;SDS011;6053;51.382;6.768;2023-04-02T10:46:12;3.30;;;1.70;;
11986;SDS011;6053;51.382;6.768;2023-04-02T10:48:52;1.57;;;1.47;;
11986;SDS011;6053;51.382;6.768;2023-04-02T10:51:30;1.83;;;1.70;;
11986;SDS011;6053;51.382;6.768;2023-04-02T10:54:09;2.22;;;1.98;;
11986;SDS011;6053;51.382;6.768;2023-04-02T10:56:49;1.77;;;1.67;;
11986;SDS011;6053;51.382;6.768;2023-04-02T10:59:21;2.40;;;1.80;;
11986;SDS011;6053;51.382;6.768;2023-04-02T11:01:53;1.65;;;1.48;;
11986;SDS011;6053;51.382;6.768;2023-04-02T11:04:26;1.80;;;1.70;;
11986;SDS011;6053;51.382;6.768;2023-04-02T11:07:01;1.75;;;1.45;;
11986;SDS011;6053;51.382;6.768;2023-04-02T11:09:40;1.70;;;1.60;;
11986;SDS011;6053;51.382;6.768;2023-04-02T11:12:17;1.58;;;1.48;;
11986;SDS011;6053;51.382;6.768;2023-04-02T11:14:50;2.28;;;1.50;;
11986;SDS011;6053;51.382;6.768;2023-04-02T11:17:20;1.75;;;1.50;;
11986;SDS011;6053;51.382;6.768;2023-04-02T11:19:50;1.80;;;1.70;;
11986;SDS011;6053;51.382;6.768;2023-04-02T11:22:19;1.60;;;1.50;;
11986;SDS011;6053;51.382;6.768;2023-04-02T11:24:49;1.90;;;1.58;;
11986;SDS011;6053;51.382;6.768;2023-04-02T11:27:23;1.93;;;1.73;;
11986;SDS011;6053;51.382;6.768;2023-04-02T11:30:00;1.60;;;1.50;;
11986;SDS011;6053;51.382;6.768;2023-04-02T11:32:32;1.65;;;1.55;;
11986;SDS011;6053;51.382;6.768;2023-04-02T11:37:54;1.70;;;1.50;;
11986;SDS011;6053;51.382;6.768;2023-04-02T11:40:40;1.67;;;1.58;;
11986;SDS011;6053;51.382;6.768;2023-04-02T11:46:33;2.05;;;1.73;;
11986;SDS011;6053;51.382;6.768;2023-04-02T11:52:20;1.40;;;1.30;;
11986;SDS011;6053;51.382;6.768;2023-04-02T11:54:54;2.80;;;1.90;;
11986;SDS011;6053;51.382;6.768;2023-04-02T12:00:32;1.70;;;1.60;;
11986;SDS011;6053;51.382;6.768;2023-04-02T12:03:28;1.63;;;1.52;;
11986;SDS011;6053;51.382;6.768;2023-04-02T12:06:10;2.20;;;1.33;;
11986;SDS011;6053;51.382;6.768;2023-04-02T12:08:53;1.35;;;1.30;;
11986;SDS011;6053;51.382;6.768;2023-04-02T12:11:31;2.13;;;1.50;;
11986;SDS011;6053;51.382;6.768;2023-04-02T12:14:05;1.52;;;1.42;;
11986;SDS011;6053;51.382;6.768;2023-04-02T12:16:50;1.63;;;1.52;;
11986;SDS011;6053;51.382;6.768;2023-04-02T12:19:19;1.20;;;1.20;;
11986;SDS011;6053;51.382;6.768;2023-04-02T12:21:49;1.40;;;1.35;;
11986;SDS011;6053;51.382;6.768;2023-04-02T12:24:20;1.50;;;1.40;;
11986;SDS011;6053;51.382;6.768;2023-04-02T12:27:05;1.90;;;1.45;;
11986;SDS011;6053;51.382;6.768;2023-04-02T12:29:40;1.33;;;1.27;;
11986;SDS011;6053;51.382;6.768;2023-04-02T12:32:15;1.52;;;1.42;;
11986;SDS011;6053;51.382;6.768;2023-04-02T12:34:48;2.72;;;2.50;;
11986;SDS011;6053;51.382;6.768;2023-04-02T12:37:20;1.40;;;1.30;;
11986;SDS011;6053;51.382;6.768;2023-04-02T12:39:51;1.60;;;1.50;;
11986;SDS011;6053;51.382;6.768;2023-04-02T12:42:25;1.50;;;1.40;;
11986;SDS011;6053;51.382;6.768;2023-04-02T12:44:58;1.40;;;1.30;;
11986;SDS011;6053;51.382;6.768;2023-04-02T12:47:29;1.40;;;1.40;;
11986;SDS011;6053;51.382;6.768;2023-04-02T12:49:58;1.60;;;1.50;;
11986;SDS011;6053;51.382;6.768;2023-04-02T12:52:28;1.30;;;1.30;;
11986;SDS011;6053;51.382;6.768;2023-04-02T12:54:58;1.30;;;1.30;;
11986;SDS011;6053;51.382;6.768;2023-04-02T12:57:30;1.58;;;1.48;;
11986;SDS011;6053;51.382;6.768;2023-04-02T13:03:06;1.30;;;1.30;;
11986;SDS011;6053;51.382;6.768;2023-04-02T13:05:46;1.30;;;1.30;;
11986;SDS011;6053;51.382;6.768;2023-04-02T13:08:19;1.48;;;1.38;;
11986;SDS011;6053;51.382;6.768;2023-04-02T13:10:52;1.67;;;1.40;;
11986;SDS011;6053;51.382;6.768;2023-04-02T13:13:24;1.90;;;1.40;;
11986;SDS011;6053;51.382;6.768;2023-04-02T13:16:03;1.60;;;1.50;;
11986;SDS011;6053;51.382;6.768;2023-04-02T13:18:36;1.27;;;1.27;;
11986;SDS011;6053;51.382;6.768;2023-04-02T13:21:06;1.13;;;1.05;;
11986;SDS011;6053;51.382;6.768;2023-04-02T13:23:54;1.10;;;1.10;;
11986;SDS011;6053;51.382;6.768;2023-04-02T13:26:23;1.27;;;1.17;;
11986;SDS011;6053;51.382;6.768;2023-04-02T13:28:54;1.33;;;1.23;;
11986;SDS011;6053;51.382;6.768;2023-04-02T13:31:24;1.30;;;1.30;;
11986;SDS011;6053;51.382;6.768;2023-04-02T13:33:54;1.92;;;1.83;;
11986;SDS011;6053;51.382;6.768;2023-04-02T13:36:23;1.10;;;1.10;;
11986;SDS011;6053;51.382;6.768;2023-04-02T13:38:54;1.20;;;1.20;;
11986;SDS011;6053;51.382;6.768;2023-04-02T13:41:24;1.25;;;1.25;;
11986;SDS011;6053;51.382;6.768;2023-04-02T13:43:55;1.38;;;1.30;;
11986;SDS011;6053;51.382;6.768;2023-04-02T13:46:27;1.70;;;1.50;;
11986;SDS011;6053;51.382;6.768;2023-04-02T13:48:58;1.58;;;1.48;;
11986;SDS011;6053;51.382;6.768;2023-04-02T13:51:30;1.30;;;1.20;;
11986;SDS011;6053;51.382;6.768;2023-04-02T13:54:04;1.30;;;1.30;;
11986;SDS011;6053;51.382;6.768;2023-04-02T13:56:37;1.52;;;1.42;;
11986;SDS011;6053;51.382;6.768;2023-04-02T13:59:06;1.55;;;1.42;;
11986;SDS011;6053;51.382;6.768;2023-04-02T14:01:35;2.25;;;1.90;;
11986;SDS011;6053;51.382;6.768;2023-04-02T14:04:05;1.50;;;1.40;;
11986;SDS011;6053;51.382;6.768;2023-04-02T14:06:46;1.30;;;1.20;;
11986;SDS011;6053;51.382;6.768;2023-04-02T14:09:39;1.50;;;1.42;;
11986;SDS011;6053;51.382;6.768;2023-04-02T14:12:20;1.57;;;1.47;;
11986;SDS011;6053;51.382;6.768;2023-04-02T14:15:10;1.38;;;1.27;;
11986;SDS011;6053;51.382;6.768;2023-04-02T14:17:56;1.88;;;1.40;;
11986;SDS011;6053;51.382;6.768;2023-04-02T14:20:40;1.48;;;1.38;;
11986;SDS011;6053;51.382;6.768;2023-04-02T14:23:21;1.98;;;1.30;;
11986;SDS011;6053;51.382;6.768;2023-04-02T14:26:06;1.20;;;1.20;;
11986;SDS011;6053;51.382;6.768;2023-04-02T14:28:45;1.40;;;1.30;;
11986;SDS011;6053;51.382;6.768;2023-04-02T14:31:24;1.10;;;1.10;;
11986;SDS011;6053;51.382;6.768;2023-04-02T14:34:01;1.47;;;1.47;;
11986;SDS011;6053;51.382;6.768;2023-04-02T14:36:42;1.38;;;1.30;;
11986;SDS011;6053;51.382;6.768;2023-04-02T14:39:23;1.50;;;1.40;;
11986;SDS011;6053;51.382;6.768;2023-04-02T14:42:03;1.38;;;1.33;;
11986;SDS011;6053;51.382;6.768;2023-04-02T14:44:40;1.58;;;1.50;;
11986;SDS011;6053;51.382;6.768;2023-04-02T14:47:15;1.50;;;1.40;;
11986;SDS011;6053;51.382;6.768;2023-04-02T14:49:49;1.27;;;1.25;;
11986;SDS011;6053;51.382;6.768;2023-04-02T14:52:23;1.52;;;1.42;;
11986;SDS011;6053;51.382;6.768;2023-04-02T14:54:56;1.85;;;1.70;;
11986;SDS011;6053;51.382;6.768;2023-04-02T14:57:29;1.50;;;1.40;;
11986;SDS011;6053;51.382;6.768;2023-04-02T15:00:02;1.70;;;1.60;;
11986;SDS011;6053;51.382;6.768;2023-04-02T15:02:36;1.80;;;1.70;;
11986;SDS011;6053;51.382;6.768;2023-04-02T15:05:12;1.98;;;1.60;;
11986;SDS011;6053;51.382;6.768;2023-04-02T15:07:45;2.30;;;1.60;;
11986;SDS011;6053;51.382;6.768;2023-04-02T15:10:20;1.55;;;1.45;;
11986;SDS011;6053;51.382;6.768;2023-04-02T15:12:52;1.33;;;1.33;;
11986;SDS011;6053;51.382;6.768;2023-04-02T15:15:27;2.15;;;1.50;;
11986;SDS011;6053;51.382;6.768;2023-04-02T15:18:08;1.90;;;1.60;;
11986;SDS011;6053;51.382;6.768;2023-04-02T15:20:39;4.53;;;1.65;;
11986;SDS011;6053;51.382;6.768;2023-04-02T15:23:17;1.45;;;1.40;;
11986;SDS011;6053;51.382;6.768;2023-04-02T15:25:59;2.10;;;1.58;;
11986;SDS011;6053;51.382;6.768;2023-04-02T15:28:33;1.55;;;1.50;;
11986;SDS011;6053;51.382;6.768;2023-04-02T15:31:08;1.57;;;1.47;;
11986;SDS011;6053;51.382;6.768;2023-04-02T15:33:41;2.60;;;1.70;;
11986;SDS011;6053;51.382;6.768;2023-04-02T15:36:31;1.52;;;1.42;;
11986;SDS011;6053;51.382;6.768;2023-04-02T15:39:39;2.07;;;1.60;;
11986;SDS011;6053;51.382;6.768;2023-04-02T15:42:25;1.75;;;1.65;;
11986;SDS011;6053;51.382;6.768;2023-04-02T15:45:03;1.80;;;1.70;;
11986;SDS011;6053;51.382;6.768;2023-04-02T15:47:47;1.85;;;1.65;;
11986;SDS011;6053;51.382;6.768;2023-04-02T15:50:41;1.75;;;1.65;;
11986;SDS011;6053;51.382;6.768;2023-04-02T15:53:21;1.80;;;1.70;;
11986;SDS011;6053;51.382;6.768;2023-04-02T15:56:08;1.70;;;1.60;;
11986;SDS011;6053;51.382;6.768;2023-04-02T15:58:48;1.58;;;1.58;;
11986;SDS011;6053;51.382;6.768;2023-04-02T16:01:46;1.58;;;1.48;;
11986;SDS011;6053;51.382;6.768;2023-04-02T16:04:33;1.60;;;1.50;;
11986;SDS011;6053;51.382;6.768;2023-04-02T16:07:22;1.67;;;1.60;;
11986;SDS011;6053;51.382;6.768;2023-04-02T16:10:04;1.65;;;1.55;;